Time;durP1;ratioP1;P1;durP2;ratioP2;P2;SDS_P1;SDS_P2;PMS_P1;PMS_P2;Temp;Humidity;BMP_temperature;BMP_pressure;BME280_temperature;BME280_humidity;BME280_pressure;Samples;Min_cycle;Max_cycle;Signal;HPM_P1;HPM_P2
2021/12/02 00:01:59;;;;;;;4.03;0.68;;;;;;;11.72;51.34;99996.03;4935636;29;20021;-63
2021/12/02 00:04:27;;;;;;;5.45;0.70;;;;;;;11.86;49.85;99997.75;4934310;29;20032;-65
2021/12/02 00:06:52;;;;;;;;;;;;;;;11.66;50.38;100005.59;4934947;29;20039;-65
2021/12/02 00:09:18;;;;;;;6.82;2.75;;;;;;;11.76;50.10;100002.47;4934618;29;19911;-65
2021/12/02 00:11:43;;;;;;;7.68;1.23;;;;;;;12.10;49.65;100011.66;4902465;29;20056;-67
2021/12/02 00:14:11;;;;;;;5.88;1.10;;;;;;;12.43;49.22;100015.63;4935531;29;20095;-63
2021/12/02 00:16:51;;;;;;;5.50;0.90;;;;;;;12.36;49.65;100013.44;4918529;29;20035;-65
2021/12/02 00:22:02;;;;;;;7.50;1.02;;;;;;;11.97;50.02;100019.00;4934459;29;20051;-65
2021/12/02 00:24:30;;;;;;;;;;;;;;;12.12;50.71;100023.13;4935070;29;20035;-66
2021/12/02 00:26:58;;;;;;;11.20;1.70;;;;;;;12.14;50.37;100026.34;4935349;29;20009;-65
2021/12/02 00:29:23;;;;;;;4.28;0.82;;;;;;;11.89;50.39;100021.78;4935001;29;20020;-64
2021/12/02 00:31:51;;;;;;;9.73;1.00;;;;;;;11.76;50.73;100013.47;4933796;29;20060;-66
2021/12/02 00:34:18;;;;;;;6.85;1.08;;;;;;;11.76;50.85;100018.94;4934914;29;20032;-64
2021/12/02 00:36:43;;;;;;;9.40;1.25;;;;;;;11.12;51.67;100016.28;4934555;29;20051;-62
2021/12/02 00:39:19;;;;;;;8.20;1.08;;;;;;;11.68;50.23;100021.75;4935037;29;20028;-63
2021/12/02 00:41:46;;;;;;;5.45;0.80;;;;;;;10.93;51.74;100017.47;4934629;29;20032;-63
2021/12/02 00:44:13;;;;;;;6.85;1.40;;;;;;;11.08;51.30;100022.44;4949981;29;20051;-63
2021/12/02 00:46:40;;;;;;;8.70;0.90;;;;;;;10.67;51.81;100017.50;4917793;29;20032;-63
2021/12/02 00:49:11;;;;;;;7.63;1.05;;;;;;;10.37;52.70;100014.59;4950003;29;20028;-64
2021/12/02 00:51:37;;;;;;;7.55;1.25;;;;;;;10.70;52.54;100017.66;4934458;29;20028;-63
2021/12/02 00:54:06;;;;;;;8.52;0.98;;;;;;;11.07;51.67;100028.25;4934969;29;20075;-65
2021/12/02 00:56:32;;;;;;;8.18;0.90;;;;;;;10.14;54.19;100016.66;4934280;29;20091;-64
2021/12/02 00:58:58;;;;;;;7.15;1.20;;;;;;;10.48;53.82;100020.56;4934784;29;20064;-63
2021/12/02 01:01:26;;;;;;;5.88;0.70;;;;;;;10.77;52.47;100019.91;4934834;29;20036;-63
2021/12/02 01:03:58;;;;;;;10.82;1.00;;;;;;;10.84;52.36;100020.22;4933009;29;20079;-64
2021/12/02 01:06:25;;;;;;;4.20;0.90;;;;;;;11.02;51.26;100021.00;4933884;29;20104;-64
2021/12/02 01:08:51;;;;;;;6.20;0.93;;;;;;;10.41;52.47;100018.31;4934406;29;20032;-64
2021/12/02 01:11:17;;;;;;;5.90;0.90;;;;;;;10.14;53.42;100027.63;4934515;29;20056;-63
2021/12/02 01:13:44;;;;;;;6.00;0.90;;;;;;;10.41;52.71;100036.69;4934350;29;20031;-65
2021/12/02 01:16:10;;;;;;;6.50;1.20;;;;;;;9.91;54.21;100052.38;4934823;29;20092;-64
2021/12/02 01:18:35;;;;;;;5.05;0.52;;;;;;;10.28;52.88;100028.28;4934162;29;20040;-62
2021/12/02 01:21:02;;;;;;;2.75;0.60;;;;;;;10.50;50.99;100034.78;4933704;29;20051;-65
2021/12/02 01:23:31;;;;;;;4.07;0.73;;;;;;;10.91;50.06;100032.63;4902269;29;20046;-64
2021/12/02 01:26:04;;;;;;;4.53;0.57;;;;;;;11.29;49.43;100037.38;4933187;29;20038;-64
2021/12/02 01:28:30;;;;;;;2.92;0.82;;;;;;;11.04;49.76;100042.63;4936339;29;20040;-63
2021/12/02 01:30:56;;;;;;;6.05;0.73;;;;;;;11.08;49.97;100038.88;4937795;29;20032;-66
2021/12/02 01:33:24;;;;;;;5.03;0.93;;;;;;;11.17;49.71;100041.63;4937478;29;20139;-63
2021/12/02 01:35:54;;;;;;;12.15;1.00;;;;;;;10.87;50.23;100032.47;4937691;29;20028;-63
2021/12/02 01:38:22;;;;;;;14.10;1.17;;;;;;;11.46;49.24;100031.03;4938110;29;20030;-64
2021/12/02 01:40:48;;;;;;;4.00;0.85;;;;;;;11.37;49.10;100039.28;4937626;29;20024;-65
2021/12/02 01:43:16;;;;;;;9.15;1.00;;;;;;;11.03;50.21;100041.81;4938172;29;20057;-65
2021/12/02 01:45:43;;;;;;;7.32;1.10;;;;;;;11.40;49.40;100033.94;4952530;29;20028;-66
2021/12/02 01:48:19;;;;;;;5.57;0.98;;;;;;;11.41;49.06;100032.81;4936927;29;20032;-66
2021/12/02 01:51:00;;;;;;;7.80;1.23;;;;;;;11.25;49.69;100037.25;4952215;29;20060;-63
2021/12/02 01:53:31;;;;;;;5.32;0.77;;;;;;;10.83;50.70;100046.03;4937012;29;20024;-64
2021/12/02 01:56:10;;;;;;;4.40;0.80;;;;;;;10.70;51.04;100039.59;4936454;29;20067;-64
2021/12/02 01:58:48;;;;;;;3.33;0.75;;;;;;;10.52;51.76;100035.25;4952622;29;20035;-64
2021/12/02 02:01:26;;;;;;;5.88;1.08;;;;;;;10.84;50.77;100033.13;4937892;29;20028;-65
2021/12/02 02:03:54;;;;;;;4.88;1.00;;;;;;;11.07;49.93;100031.81;4952290;29;20035;-63
2021/12/02 02:06:28;;;;;;;4.80;0.90;;;;;;;11.37;49.44;100029.16;4936837;29;20028;-64
2021/12/02 02:08:57;;;;;;;6.70;1.35;;;;;;;11.29;49.21;100038.19;4937423;29;20039;-65
2021/12/02 02:11:28;;;;;;;7.60;1.05;;;;;;;11.59;48.35;100046.47;4937676;29;20036;-64
2021/12/02 02:13:56;;;;;;;3.95;0.80;;;;;;;11.16;49.29;100047.44;4952129;29;20654;-64
2021/12/02 02:16:22;;;;;;;5.80;1.30;;;;;;;10.19;51.83;100057.59;4951525;29;20074;-63
2021/12/02 02:18:47;;;;;;;5.18;0.88;;;;;;;10.77;50.70;100062.97;4975259;29;20031;-64
2021/12/02 02:21:16;;;;;;;4.53;0.93;;;;;;;10.99;49.48;100062.81;4974722;28;20027;-63
2021/12/02 02:23:50;;;;;;;8.27;1.00;;;;;;;10.22;51.12;100058.88;4975369;29;20062;-63
2021/12/02 02:26:22;;;;;;;4.93;0.88;;;;;;;10.34;51.47;100059.91;4943802;29;20059;-64
2021/12/02 02:28:48;;;;;;;7.85;1.08;;;;;;;10.39;51.79;100061.69;4942981;29;20031;-65
2021/12/02 02:31:13;;;;;;;4.22;1.00;;;;;;;10.33;51.39;100060.22;4975455;29;20063;-63
2021/12/02 02:33:39;;;;;;;9.32;0.88;;;;;;;10.42;50.55;100049.25;4975406;29;20039;-63
2021/12/02 02:36:07;;;;;;;4.75;0.55;;;;;;;11.03;49.77;100057.47;4957997;29;20032;-65
2021/12/02 02:38:34;;;;;;;4.03;0.80;;;;;;;10.30;50.60;100044.38;4975152;28;20031;-67
2021/12/02 02:41:01;;;;;;;4.18;0.60;;;;;;;10.57;49.52;100046.03;4975073;29;20027;-64
2021/12/02 02:43:27;;;;;;;6.72;0.90;;;;;;;10.89;48.95;100052.16;4958714;29;20045;-64
2021/12/02 02:45:53;;;;;;;5.60;0.55;;;;;;;10.12;50.22;100046.31;4942335;29;20043;-67
2021/12/02 02:48:19;;;;;;;4.05;0.70;;;;;;;10.33;49.76;100055.53;4942360;29;20042;-65
2021/12/02 02:50:45;;;;;;;5.78;0.80;;;;;;;10.24;49.89;100049.19;4974740;29;20054;-64
2021/12/02 02:53:19;;;;;;;1.50;0.40;;;;;;;10.63;49.39;100054.94;4975060;29;20091;-65
2021/12/02 02:56:10;;;;;;;4.88;0.70;;;;;;;10.59;49.29;100060.22;4974078;28;20031;-66
2021/12/02 03:06:53;;;;;;;5.60;0.82;;;;;;;10.49;49.36;100083.28;4975038;29;20054;-63
2021/12/02 03:09:27;;;;;;;2.70;0.52;;;;;;;10.57;49.08;100076.19;4974884;29;20034;-64
2021/12/02 03:11:57;;;;;;;11.25;0.68;;;;;;;10.73;49.08;100086.69;4974415;29;20440;-64
2021/12/02 03:14:34;;;;;;;6.32;0.80;;;;;;;9.89;51.33;100081.97;4974915;29;20544;-64
2021/12/02 03:16:59;;;;;;;7.32;0.70;;;;;;;9.94;51.93;100078.31;4974172;29;20051;-63
2021/12/02 03:19:27;;;;;;;4.10;0.70;;;;;;;10.22;51.67;100084.34;4974393;29;20031;-62
2021/12/02 03:21:53;;;;;;;;;;;;;;;10.94;50.73;100084.09;4941717;29;20042;-63
2021/12/02 03:24:19;;;;;;;5.75;0.90;;;;;;;10.20;52.67;100102.22;4957582;29;19985;-64
2021/12/02 03:26:44;;;;;;;3.15;0.60;;;;;;;9.31;55.37;100100.25;4974480;29;20027;-63
2021/12/02 03:29:10;;;;;;;4.93;0.55;;;;;;;9.85;54.66;100099.38;4974043;29;20090;-62
2021/12/02 03:31:35;;;;;;;2.75;0.28;;;;;;;9.94;54.59;100076.38;4974310;29;20034;-63
2021/12/02 03:34:01;;;;;;;1.38;0.40;;;;;;;9.55;54.77;100060.78;4973858;29;20031;-63
2021/12/02 03:36:27;;;;;;;2.28;0.47;;;;;;;10.55;52.53;100051.06;4957317;29;20098;-65
2021/12/02 03:38:53;;;;;;;3.38;0.63;;;;;;;10.71;51.93;100048.63;4957077;29;20034;-65
2021/12/02 03:41:19;;;;;;;4.25;0.38;;;;;;;10.84;51.34;100053.13;4957463;29;20174;-64
2021/12/02 03:43:46;;;;;;;2.70;0.55;;;;;;;10.69;51.85;100057.19;4974137;29;20031;-64
2021/12/02 03:46:16;;;;;;;3.97;0.40;;;;;;;10.57;52.42;100075.41;4973677;29;20123;-63
2021/12/02 03:48:42;;;;;;;3.42;0.55;;;;;;;10.51;52.78;100074.75;4974066;28;20038;-64
2021/12/02 03:51:10;;;;;;;1.63;0.40;;;;;;;10.35;53.29;100060.69;4940371;29;20031;-64
2021/12/02 03:53:36;;;;;;;5.53;0.73;;;;;;;10.56;52.79;100060.88;4973882;29;20063;-63
2021/12/02 03:56:03;;;;;;;2.72;0.55;;;;;;;10.41;52.94;100069.59;4973581;29;20037;-63
2021/12/02 03:58:29;;;;;;;5.40;0.80;;;;;;;10.73;52.06;100072.97;4973877;29;20031;-63
2021/12/02 04:00:55;;;;;;;2.60;0.40;;;;;;;10.13;53.18;100086.25;4956315;29;20098;-64
2021/12/02 04:03:20;;;;;;;2.58;0.45;;;;;;;9.34;55.03;100087.88;4956802;29;20063;-64
2021/12/02 04:05:46;;;;;;;8.20;1.05;;;;;;;8.72;56.27;100083.91;4940866;29;20042;-65
2021/12/02 04:08:12;;;;;;;5.00;0.93;;;;;;;8.44;56.75;100078.50;4973537;29;20035;-64
2021/12/02 04:10:42;;;;;;;3.97;0.63;;;;;;;8.59;56.51;100057.44;4956584;29;20027;-63
2021/12/02 04:13:16;;;;;;;6.00;1.05;;;;;;;9.02;55.63;100071.44;4973383;29;20079;-64
2021/12/02 04:15:44;;;;;;;3.22;0.60;;;;;;;9.11;55.45;100073.41;4957727;29;20048;-65
2021/12/02 04:18:10;;;;;;;5.32;0.68;;;;;;;9.56;54.46;100067.84;4972932;29;20051;-62
2021/12/02 04:20:37;;;;;;;4.28;0.60;;;;;;;9.45;54.44;100067.34;4956491;29;20107;-63
2021/12/02 04:23:03;;;;;;;5.10;1.00;;;;;;;9.40;54.25;100092.06;4973152;29;20039;-62
2021/12/02 04:25:28;;;;;;;9.10;1.55;;;;;;;8.20;58.55;100107.97;4973298;29;20049;-65
2021/12/02 04:27:54;;;;;;;3.30;0.60;;;;;;;8.25;58.13;100103.19;4973538;29;20091;-64
2021/12/02 04:30:25;;;;;;;3.63;0.77;;;;;;;8.30;58.43;100099.56;4955861;29;20019;-63
2021/12/02 04:32:51;;;;;;;4.97;0.68;;;;;;;8.12;58.35;100113.03;4956305;29;20031;-64
2021/12/02 04:35:17;;;;;;;1.95;0.52;;;;;;;8.26;58.27;100109.50;4972052;28;20023;-63
2021/12/02 04:37:44;;;;;;;2.33;0.68;;;;;;;8.71;56.90;100098.69;4956245;29;20042;-65
2021/12/02 04:40:11;;;;;;;1.10;0.32;;;;;;;8.66;55.74;100090.59;4956071;29;20031;-65
2021/12/02 04:42:37;;;;;;;;;;;;;;;9.12;54.72;100081.31;4973643;29;20034;-62
2021/12/02 04:45:03;;;;;;;1.25;0.20;;;;;;;9.40;53.48;100073.75;4955748;29;20545;-64
2021/12/02 04:47:29;;;;;;;0.70;0.30;;;;;;;9.12;53.74;100075.03;4956041;29;20118;-64
2021/12/02 04:49:54;;;;;;;3.55;0.28;;;;;;;9.84;51.88;100079.41;4956205;29;20035;-62
2021/12/02 04:52:20;;;;;;;4.10;0.60;;;;;;;9.96;51.45;100084.28;4971544;28;20043;-63
2021/12/02 04:54:45;;;;;;;1.13;0.40;;;;;;;9.38;52.25;100077.91;4956089;29;20051;-66
2021/12/02 04:57:10;;;;;;;0.75;0.30;;;;;;;9.76;51.51;100082.91;4972725;29;20027;-63
2021/12/02 04:59:35;;;;;;;0.82;0.30;;;;;;;10.22;50.42;100073.38;4955949;29;20035;-66
2021/12/02 05:02:01;;;;;;;3.53;0.32;;;;;;;10.42;49.54;100077.47;4939134;29;20028;-63
2021/12/02 05:04:27;;;;;;;2.38;0.55;;;;;;;10.42;49.26;100076.66;4955936;29;20027;-63
2021/12/02 05:06:53;;;;;;;1.50;0.40;;;;;;;10.55;48.46;100075.72;4940162;29;20031;-65
2021/12/02 05:09:18;;;;;;;3.75;0.30;;;;;;;10.49;48.75;100080.53;4971495;29;20027;-66
2021/12/02 05:11:43;;;;;;;1.23;0.32;;;;;;;10.46;48.48;100083.91;4955826;29;20027;-65
2021/12/02 05:14:09;;;;;;;2.20;0.50;;;;;;;10.69;47.98;100086.53;4972609;29;20023;-64
2021/12/02 05:16:39;;;;;;;1.83;0.50;;;;;;;10.78;48.03;100087.31;4955664;29;20034;-65
2021/12/02 05:19:04;;;;;;;1.77;0.45;;;;;;;10.76;47.59;100086.03;4972244;29;20050;-63
2021/12/02 05:21:30;;;;;;;1.60;0.40;;;;;;;10.76;47.65;100086.03;4972647;29;20039;-64
2021/12/02 05:23:55;;;;;;;3.25;0.50;;;;;;;10.80;47.59;100087.81;4972856;29;20039;-66
2021/12/02 05:26:22;;;;;;;2.20;0.65;;;;;;;10.80;47.78;100092.47;4955215;29;20027;-66
2021/12/02 05:28:47;;;;;;;3.13;0.55;;;;;;;10.43;48.60;100089.25;4972638;29;20047;-64
2021/12/02 05:31:13;;;;;;;3.60;0.60;;;;;;;10.56;48.39;100082.78;4955517;29;20562;-65
2021/12/02 05:33:38;;;;;;;4.03;0.90;;;;;;;10.23;49.34;100096.91;4972665;29;20065;-66
2021/12/02 05:36:04;;;;;;;2.92;0.60;;;;;;;9.87;50.40;100084.25;4955933;29;20036;-63
2021/12/02 05:38:29;;;;;;;5.05;0.90;;;;;;;9.52;51.36;100095.03;4971652;28;20031;-64
2021/12/02 05:40:55;;;;;;;4.63;0.90;;;;;;;8.97;52.04;100096.16;4972570;29;20042;-63
2021/12/02 05:43:20;;;;;;;8.32;1.08;;;;;;;9.12;51.93;100105.91;4972114;29;20110;-65
2021/12/02 05:45:45;;;;;;;7.38;0.88;;;;;;;9.00;52.30;100108.38;4955776;29;20043;-64
2021/12/02 05:48:11;;;;;;;4.32;0.98;;;;;;;8.69;52.55;100117.31;4972083;29;20027;-65
2021/12/02 05:50:37;;;;;;;4.18;1.00;;;;;;;8.64;53.29;100122.91;4972531;29;20034;-63
2021/12/02 05:53:02;;;;;;;5.25;1.00;;;;;;;8.44;54.97;100133.16;4938865;29;20059;-63
2021/12/02 05:55:27;;;;;;;6.88;0.88;;;;;;;8.64;54.90;100131.09;4955060;29;20031;-63
2021/12/02 05:57:53;;;;;;;4.65;0.95;;;;;;;9.00;53.80;100111.91;4955521;29;20046;-62
2021/12/02 06:00:18;;;;;;;4.88;0.80;;;;;;;8.67;54.04;100108.59;4954854;29;20095;-65
2021/12/02 06:02:45;;;;;;;6.78;0.80;;;;;;;9.74;51.71;100107.88;4939620;29;20035;-65
2021/12/02 06:05:15;;;;;;;5.05;0.70;;;;;;;10.35;50.44;100115.50;4971858;29;20023;-65
2021/12/02 06:07:41;;;;;;;5.50;1.05;;;;;;;10.39;50.29;100121.97;4971543;29;20055;-64
2021/12/02 06:10:06;;;;;;;6.95;1.15;;;;;;;10.32;50.71;100138.88;4955245;29;20031;-65
2021/12/02 06:12:32;;;;;;;6.70;1.20;;;;;;;10.12;51.15;100145.69;4938914;29;20031;-64
2021/12/02 06:14:57;;;;;;;5.55;1.02;;;;;;;9.72;52.00;100147.63;4957678;29;20034;-66
2021/12/02 06:17:23;;;;;;;7.55;1.30;;;;;;;8.74;54.24;100151.94;4956974;29;20070;-63
2021/12/02 06:19:48;;;;;;;5.13;1.17;;;;;;;9.26;53.51;100153.16;4975598;29;20051;-62
2021/12/02 06:22:14;;;;;;;10.15;1.13;;;;;;;8.64;54.43;100153.75;4958333;29;20038;-67
2021/12/02 06:24:43;;;;;;;3.28;0.75;;;;;;;8.33;55.37;100159.03;4975569;29;20035;-64
2021/12/02 06:27:10;;;;;;;3.22;0.80;;;;;;;7.89;55.47;100154.97;4943088;29;20054;-64
2021/12/02 06:29:37;;;;;;;3.65;0.50;;;;;;;7.51;55.06;100149.66;4975402;29;20034;-62
2021/12/02 06:32:04;;;;;;;3.85;0.43;;;;;;;7.88;53.40;100150.66;4958286;29;20737;-63
2021/12/02 06:34:30;;;;;;;1.15;0.40;;;;;;;8.69;51.61;100133.72;4975072;29;20031;-64
2021/12/02 06:36:55;;;;;;;3.88;0.57;;;;;;;8.86;50.65;100131.13;4975339;29;20046;-63
2021/12/02 06:39:20;;;;;;;6.65;0.70;;;;;;;8.86;50.74;100128.41;4974746;29;20031;-62
2021/12/02 06:41:46;;;;;;;3.20;0.52;;;;;;;9.40;49.38;100135.84;4942319;29;20096;-65
2021/12/02 06:44:13;;;;;;;7.00;0.60;;;;;;;9.04;50.12;100144.94;4975129;29;20652;-64
2021/12/02 06:46:38;;;;;;;4.60;0.80;;;;;;;9.25;49.40;100140.56;4942497;29;20039;-65
2021/12/02 06:49:03;;;;;;;3.15;0.50;;;;;;;9.25;49.59;100148.00;4958112;29;20040;-65
2021/12/02 06:51:29;;;;;;;5.82;0.90;;;;;;;9.59;48.44;100144.66;4957685;29;20027;-66
2021/12/02 06:53:55;;;;;;;2.78;0.70;;;;;;;9.42;48.80;100145.38;4958007;28;20058;-65
2021/12/02 06:56:20;;;;;;;2.72;0.73;;;;;;;9.70;48.42;100163.56;4974425;29;20042;-63
2021/12/02 06:58:45;;;;;;;3.50;0.60;;;;;;;9.25;48.99;100157.00;4957875;29;20027;-65
2021/12/02 07:01:11;;;;;;;5.90;0.80;;;;;;;9.30;49.43;100164.25;4941868;29;20047;-65
2021/12/02 07:03:36;;;;;;;6.50;0.82;;;;;;;9.17;50.04;100165.94;4957444;29;20062;-64
2021/12/02 07:06:02;;;;;;;6.65;1.30;;;;;;;8.85;51.60;100164.25;4941776;29;20042;-65
2021/12/02 07:08:29;;;;;;;6.38;0.63;;;;;;;9.19;50.64;100163.69;4941338;29;20031;-64
2021/12/02 07:10:54;;;;;;;4.10;0.55;;;;;;;9.54;49.31;100166.66;4974775;29;20024;-64
2021/12/02 07:13:20;;;;;;;6.75;1.15;;;;;;;9.23;50.32;100164.72;4941079;29;20718;-66
2021/12/02 07:15:56;;;;;;;6.43;1.05;;;;;;;9.45;49.98;100171.31;4940967;29;20039;-67
2021/12/02 07:18:21;;;;;;;7.10;0.95;;;;;;;9.06;51.43;100180.97;4944559;29;20063;-62
2021/12/02 07:20:49;;;;;;;5.85;1.00;;;;;;;8.96;52.25;100187.50;4951181;29;20027;-65
2021/12/02 07:23:17;;;;;;;7.25;1.05;;;;;;;8.65;53.64;100188.19;4943225;29;20035;-63
2021/12/02 07:25:43;;;;;;;8.18;1.20;;;;;;;8.46;54.08;100185.56;4953791;29;20031;-64
2021/12/02 07:28:10;;;;;;;6.70;0.80;;;;;;;8.59;53.58;100175.75;4937945;29;20066;-65
2021/12/02 07:30:35;;;;;;;8.25;1.13;;;;;;;8.93;52.19;100181.84;4937926;29;20059;-65
2021/12/02 07:33:03;;;;;;;4.28;0.90;;;;;;;9.41;51.32;100178.50;4954985;29;20027;-64
2021/12/02 07:35:28;;;;;;;;;;;;;;;9.69;50.73;100170.13;4954876;29;20035;-62
2021/12/02 07:37:57;;;;;;;6.70;1.08;;;;;;;9.04;52.76;100183.22;4954680;29;19974;-65
2021/12/02 07:40:25;;;;;;;7.70;0.70;;;;;;;9.21;52.23;100191.56;4937230;29;20034;-64
2021/12/02 07:42:52;;;;;;;5.85;0.88;;;;;;;9.22;52.50;100198.63;4922441;29;20039;-63
2021/12/02 07:45:18;;;;;;;3.85;1.15;;;;;;;7.43;57.65;100214.69;4954746;29;20047;-64
2021/12/02 07:47:44;;;;;;;3.85;1.02;;;;;;;8.01;57.55;100233.66;4954335;29;20028;-64
2021/12/02 07:50:12;;;;;;;2.25;0.80;;;;;;;7.00;59.71;100239.34;4937686;29;20067;-64
2021/12/02 07:52:45;;;;;;;3.03;0.57;;;;;;;6.38;60.93;100252.91;4954108;29;20035;-63
2021/12/02 07:55:13;;;;;;;4.43;1.00;;;;;;;6.97;60.06;100253.53;4953600;29;20028;-63
2021/12/02 07:57:40;;;;;;;2.38;0.57;;;;;;;7.00;59.24;100244.78;4954249;29;20055;-64
2021/12/02 08:00:07;;;;;;;3.90;0.60;;;;;;;7.50;58.42;100257.94;4906692;29;20039;-63
2021/12/02 08:02:35;;;;;;;3.92;0.30;;;;;;;6.86;59.22;100255.59;4937251;29;20666;-62
2021/12/02 08:05:02;;;;;;;1.15;0.32;;;;;;;6.70;58.62;100241.34;4954267;29;20036;-63
2021/12/02 08:07:27;;;;;;;3.30;0.45;;;;;;;7.51;56.60;100234.22;4937304;29;20032;-63
2021/12/02 08:09:53;;;;;;;0.63;0.30;;;;;;;7.43;56.09;100230.25;4954021;29;20092;-64
2021/12/02 08:12:19;;;;;;;1.67;0.40;;;;;;;8.08;55.29;100251.28;4953869;29;20051;-63
2021/12/02 08:14:50;;;;;;;3.30;0.50;;;;;;;7.91;55.42;100259.22;4936535;29;20063;-63
2021/12/02 08:17:16;;;;;;;2.65;0.60;;;;;;;8.72;53.18;100277.94;4921958;29;20051;-65
2021/12/02 08:19:42;;;;;;;3.38;0.50;;;;;;;9.28;51.91;100269.66;4930393;28;20068;-63
2021/12/02 08:22:08;;;;;;;3.05;0.70;;;;;;;9.56;51.03;100264.88;4926109;29;20032;-63
2021/12/02 08:24:34;;;;;;;2.47;0.50;;;;;;;9.64;50.23;100272.38;4915251;29;20059;-64
2021/12/02 08:27:00;;;;;;;2.58;0.60;;;;;;;9.71;49.93;100280.13;4926424;29;20028;-63
2021/12/02 08:29:28;;;;;;;3.00;0.70;;;;;;;9.80;49.80;100278.28;4932172;29;20097;-63
2021/12/02 08:31:56;;;;;;;2.67;0.60;;;;;;;9.96;49.65;100268.53;4923563;29;20032;-63
2021/12/02 08:34:33;;;;;;;1.25;0.50;;;;;;;10.28;49.09;100283.06;4932111;29;20024;-64
2021/12/02 08:36:59;;;;;;;4.88;0.60;;;;;;;10.38;49.33;100290.22;4918927;29;20043;-66
2021/12/02 08:39:28;;;;;;;2.53;0.75;;;;;;;10.14;50.14;100296.03;4928869;29;20086;-64
2021/12/02 08:41:55;;;;;;;4.38;0.95;;;;;;;10.39;50.00;100296.50;4928144;29;20036;-63
2021/12/02 08:44:22;;;;;;;2.75;0.70;;;;;;;10.53;49.58;100308.19;4926496;29;20036;-64
2021/12/02 08:46:48;;;;;;;;;;;;;;;10.59;49.35;100315.13;4931053;29;20043;-64
2021/12/02 08:49:13;;;;;;;2.65;0.45;;;;;;;10.05;50.44;100317.88;4933960;29;19973;-64
2021/12/02 08:51:39;;;;;;;3.95;0.80;;;;;;;9.41;52.25;100323.50;4931673;29;20083;-65
2021/12/02 08:54:04;;;;;;;3.28;0.93;;;;;;;9.66;52.00;100318.59;4930074;29;20029;-63
2021/12/02 08:56:31;;;;;;;4.10;1.02;;;;;;;9.89;51.15;100317.44;4914562;29;20052;-66
2021/12/02 08:58:56;;;;;;;3.47;0.60;;;;;;;8.93;53.62;100324.81;4915991;29;20036;-65
2021/12/02 09:01:22;;;;;;;4.38;0.80;;;;;;;9.05;53.85;100325.09;4925884;29;20040;-66
2021/12/02 09:03:47;;;;;;;3.38;1.00;;;;;;;8.90;54.18;100333.59;4918124;29;20033;-65
2021/12/02 09:06:13;;;;;;;4.70;0.80;;;;;;;8.67;54.79;100330.78;4906647;29;20043;-65
2021/12/02 09:08:40;;;;;;;7.35;0.82;;;;;;;9.37;53.54;100328.78;4928689;29;20111;-66
2021/12/02 09:11:06;;;;;;;6.75;0.90;;;;;;;9.63;53.00;100331.75;4927387;29;20021;-65
2021/12/02 09:13:32;;;;;;;3.35;0.52;;;;;;;9.86;52.49;100333.69;4927031;29;20032;-64
2021/12/02 09:15:57;;;;;;;3.05;1.08;;;;;;;9.59;52.52;100336.25;4920091;29;20033;-64
2021/12/02 09:18:23;;;;;;;6.93;0.70;;;;;;;9.30;52.49;100349.47;4942211;29;20046;-64
2021/12/02 09:20:49;;;;;;;3.30;0.85;;;;;;;10.45;50.16;100339.91;4960970;29;20039;-64
2021/12/02 09:23:14;;;;;;;4.65;0.80;;;;;;;9.09;52.60;100336.22;4942615;29;20140;-63
2021/12/02 09:25:41;;;;;;;3.38;0.77;;;;;;;9.73;51.63;100340.84;4933022;29;20027;-64
2021/12/02 09:28:10;;;;;;;4.82;0.77;;;;;;;10.03;51.00;100341.25;4955173;28;20066;-63
2021/12/02 09:30:36;;;;;;;5.32;0.93;;;;;;;10.12;51.38;100347.59;4953276;29;20654;-65
2021/12/02 09:33:02;;;;;;;5.25;0.93;;;;;;;10.30;50.37;100357.50;4950256;29;20087;-64
2021/12/02 09:35:27;;;;;;;1.75;0.60;;;;;;;10.68;49.82;100353.56;4972581;29;20027;-65
2021/12/02 09:37:53;;;;;;;3.95;0.82;;;;;;;11.23;48.36;100355.03;4971397;29;20035;-65
2021/12/02 09:40:19;;;;;;;2.35;0.60;;;;;;;11.22;48.62;100364.41;4971699;29;20059;-64
2021/12/02 09:42:46;;;;;;;4.65;0.80;;;;;;;10.46;48.80;100373.59;4972377;29;20027;-62
2021/12/02 09:45:13;;;;;;;3.75;0.80;;;;;;;10.68;49.34;100384.53;4972550;29;20031;-63
2021/12/02 09:47:42;;;;;;;3.85;0.60;;;;;;;11.10;48.98;100383.41;4971430;29;20035;-63
2021/12/02 09:50:20;;;;;;;2.97;0.73;;;;;;;10.75;49.61;100396.97;4975561;29;20023;-63
2021/12/02 09:52:46;;;;;;;4.78;0.93;;;;;;;11.07;48.54;100393.91;4975981;29;20034;-63
2021/12/02 09:55:35;;;;;;;1.70;0.90;;;;;;;11.25;48.39;100389.25;4976344;29;20037;-66
2021/12/02 09:58:04;;;;;;;2.72;0.73;;;;;;;10.45;49.80;100380.19;4961950;29;20027;-64
2021/12/02 10:00:39;;;;;;;3.45;0.60;;;;;;;10.69;48.63;100377.94;4943784;29;20099;-65
2021/12/02 10:03:15;;;;;;;6.20;0.82;;;;;;;11.32;48.62;100371.53;4960675;29;20039;-63
2021/12/02 10:05:54;;;;;;;2.13;0.70;;;;;;;12.04;47.38;100380.31;4975852;29;20027;-65
2021/12/02 10:08:27;;;;;;;2.10;1.17;;;;;;;12.36;46.34;100392.75;4959078;29;20035;-65
2021/12/02 10:11:00;;;;;;;3.25;0.80;;;;;;;11.80;46.59;100392.56;4958706;29;20033;-66
2021/12/02 10:13:33;;;;;;;1.95;0.60;;;;;;;10.82;49.00;100416.53;4944103;29;20031;-65
2021/12/02 10:16:05;;;;;;;2.65;0.60;;;;;;;9.97;50.80;100437.22;4975832;29;20053;-64
2021/12/02 10:19:18;;;;;;;2.58;0.68;;;;;;;9.78;51.20;100444.75;4959257;29;20055;-65
2021/12/02 10:21:43;;;;;;;2.45;0.60;;;;;;;9.74;51.08;100455.50;4955821;29;20032;-64
2021/12/02 10:24:14;;;;;;;1.73;0.60;;;;;;;9.63;51.69;100452.16;4940374;29;20043;-64
2021/12/02 10:26:44;;;;;;;6.05;0.60;;;;;;;9.23;52.95;100460.09;4956967;29;20087;-65
2021/12/02 10:29:14;;;;;;;2.97;0.60;;;;;;;8.74;54.90;100469.75;4939945;29;20055;-66
2021/12/02 10:31:43;;;;;;;1.88;0.60;;;;;;;9.05;55.05;100463.72;4956556;29;20034;-63
2021/12/02 10:34:08;;;;;;;0.98;0.70;;;;;;;8.61;56.16;100470.53;4940000;29;20046;-62
2021/12/02 10:36:39;;;;;;;3.35;0.90;;;;;;;8.60;56.19;100474.38;4923875;29;20040;-64
2021/12/02 10:39:11;;;;;;;3.85;0.70;;;;;;;8.97;55.48;100472.63;4955820;29;20066;-63
2021/12/02 10:41:42;;;;;;;4.28;1.20;;;;;;;8.81;56.14;100475.66;4956318;29;20031;-62
2021/12/02 10:44:26;;;;;;;1.45;0.75;;;;;;;8.73;56.70;100498.19;4956179;29;20038;-63
2021/12/02 10:46:56;;;;;;;3.00;0.50;;;;;;;8.16;57.99;100501.78;4955822;29;20034;-63
2021/12/02 10:49:23;;;;;;;2.17;0.80;;;;;;;7.38;60.76;100530.31;4939179;29;20020;-63
2021/12/02 10:51:51;;;;;;;0.73;0.40;;;;;;;6.92;62.34;100545.22;4938282;29;20162;-63
2021/12/02 10:54:28;;;;;;;3.13;0.70;;;;;;;8.62;57.71;100527.63;4955862;29;20040;-63
2021/12/02 10:56:55;;;;;;;;;;;;;;;8.09;58.86;100534.09;4955924;29;20055;-63
2021/12/02 10:59:44;;;;;;;1.75;0.43;;;;;;;7.71;59.70;100542.22;4938780;29;19925;-64
2021/12/02 11:02:17;;;;;;;1.77;0.63;;;;;;;8.28;58.39;100538.75;4955440;29;20813;-63
2021/12/02 11:05:02;;;;;;;0.70;0.22;;;;;;;8.80;56.75;100531.44;4938696;29;20039;-62
2021/12/02 11:07:40;;;;;;;1.75;0.52;;;;;;;9.35;55.24;100510.75;4963706;29;20039;-63
2021/12/02 11:10:09;;;;;;;;;;;;;;;10.02;53.47;100506.66;4966837;28;20070;-64
2021/12/02 11:12:41;;;;;;;4.32;1.05;;;;;;;10.27;52.70;100506.09;4946368;29;19910;-62
2021/12/02 11:15:07;;;;;;;2.20;0.55;;;;;;;9.61;54.54;100481.78;4970865;29;20031;-63
2021/12/02 11:17:47;;;;;;;0.98;0.40;;;;;;;10.09;53.39;100479.69;4974780;29;20150;-63
2021/12/02 11:20:30;;;;;;;0.85;0.30;;;;;;;10.22;53.20;100478.00;4973257;29;20043;-64
2021/12/02 11:23:00;;;;;;;1.20;0.40;;;;;;;10.36;52.63;100480.75;4974207;29;20031;-63
2021/12/02 11:25:26;;;;;;;2.47;0.40;;;;;;;10.59;52.42;100479.59;4974544;29;20067;-64
2021/12/02 11:27:52;;;;;;;3.63;0.77;;;;;;;10.50;52.42;100473.28;4957064;29;20027;-63
2021/12/02 11:30:21;;;;;;;2.08;0.50;;;;;;;10.08;53.74;100467.91;4973255;29;20027;-64
2021/12/02 11:32:58;;;;;;;2.25;0.70;;;;;;;10.52;52.66;100473.75;4974362;29;20031;-65
2021/12/02 11:35:24;;;;;;;;;;;;;;;10.72;52.18;100469.69;4974950;29;20027;-63
2021/12/02 11:37:56;;;;;;;3.00;0.60;;;;;;;10.68;52.21;100474.19;4974173;29;19970;-64
2021/12/02 11:40:28;;;;;;;1.48;0.70;;;;;;;10.65;52.32;100486.59;4957161;29;20042;-62
2021/12/02 11:42:55;;;;;;;2.05;0.40;;;;;;;10.72;52.15;100477.91;4964415;29;20047;-64
2021/12/02 11:45:23;;;;;;;2.27;0.50;;;;;;;10.87;51.88;100477.53;4949402;29;20375;-64
2021/12/02 11:47:51;;;;;;;3.47;0.55;;;;;;;10.93;51.52;100486.44;4965782;29;20042;-64